Hi Vista, California
Current Conditions -  °F | °C
As of 11:56 AM on Thursday 27 Nov 2014 (Local Time) from KWJF Reporting Station
Clear Clear  
Wind Chill: 65°   Ceiling: Unl
Heat Index: 65°   Visibility: 10mi
Dew Point: 15°   Wind: 3mph
Humidity: 15%   Direction: 150°SSE
Pressure: 30.23"   Gusts: NA
Location:  34.7349°N, 118.15°W
Report Text: KWJF 271956Z 15003KT 10SM CLR 18/M09 A3023 RMK AO2 SLP239 T01831094
Loading
Personal Weather Stations






























Interactive Weather Map New forecast layout! Learn more

10-Day Weather Forecast

Advertisements
Track Severe Weather on mobile